sensor_id;sensor_type;location;lat;lon;timestamp;P1;durP1;ratioP1;P2;durP2;ratioP2
67904;SDS011;54709;43.614;1.576;2024-02-15T00:02:20;6.28;;;2.80;;
67904;SDS011;54709;43.614;1.576;2024-02-15T00:04:45;4.65;;;2.70;;
67904;SDS011;54709;43.614;1.576;2024-02-15T00:07:11;6.43;;;2.70;;
67904;SDS011;54709;43.614;1.576;2024-02-15T00:09:36;3.55;;;2.15;;
67904;SDS011;54709;43.614;1.576;2024-02-15T00:12:01;3.88;;;2.17;;
67904;SDS011;54709;43.614;1.576;2024-02-15T00:14:27;5.70;;;2.00;;
67904;SDS011;54709;43.614;1.576;2024-02-15T00:16:53;3.58;;;1.92;;
67904;SDS011;54709;43.614;1.576;2024-02-15T00:19:19;2.83;;;1.80;;
67904;SDS011;54709;43.614;1.576;2024-02-15T00:21:46;3.85;;;1.90;;
67904;SDS011;54709;43.614;1.576;2024-02-15T00:24:12;2.90;;;1.70;;
67904;SDS011;54709;43.614;1.576;2024-02-15T00:26:37;3.17;;;1.83;;
67904;SDS011;54709;43.614;1.576;2024-02-15T00:29:03;2.15;;;1.48;;
67904;SDS011;54709;43.614;1.576;2024-02-15T00:31:29;3.47;;;1.33;;
67904;SDS011;54709;43.614;1.576;2024-02-15T00:33:54;3.60;;;1.70;;
67904;SDS011;54709;43.614;1.576;2024-02-15T00:36:20;1.95;;;1.50;;
67904;SDS011;54709;43.614;1.576;2024-02-15T00:38:45;1.38;;;1.10;;
67904;SDS011;54709;43.614;1.576;2024-02-15T00:41:11;3.15;;;1.60;;
67904;SDS011;54709;43.614;1.576;2024-02-15T00:43:36;1.70;;;1.25;;
67904;SDS011;54709;43.614;1.576;2024-02-15T00:46:02;2.38;;;1.40;;
67904;SDS011;54709;43.614;1.576;2024-02-15T00:48:27;4.45;;;1.70;;
67904;SDS011;54709;43.614;1.576;2024-02-15T00:50:55;3.92;;;1.70;;
67904;SDS011;54709;43.614;1.576;2024-02-15T00:53:20;2.33;;;1.48;;
67904;SDS011;54709;43.614;1.576;2024-02-15T00:55:46;2.45;;;1.55;;
67904;SDS011;54709;43.614;1.576;2024-02-15T00:58:11;3.88;;;1.70;;
67904;SDS011;54709;43.614;1.576;2024-02-15T01:00:37;4.80;;;1.58;;
67904;SDS011;54709;43.614;1.576;2024-02-15T01:03:03;4.30;;;2.00;;
67904;SDS011;54709;43.614;1.576;2024-02-15T01:05:29;5.05;;;2.30;;
67904;SDS011;54709;43.614;1.576;2024-02-15T01:07:55;6.07;;;2.25;;
67904;SDS011;54709;43.614;1.576;2024-02-15T01:10:21;3.50;;;1.85;;
67904;SDS011;54709;43.614;1.576;2024-02-15T01:12:46;4.85;;;2.45;;
67904;SDS011;54709;43.614;1.576;2024-02-15T01:15:11;4.75;;;2.35;;
67904;SDS011;54709;43.614;1.576;2024-02-15T01:17:37;5.30;;;2.60;;
67904;SDS011;54709;43.614;1.576;2024-02-15T01:20:02;5.95;;;2.67;;
67904;SDS011;54709;43.614;1.576;2024-02-15T01:22:28;4.40;;;2.80;;
67904;SDS011;54709;43.614;1.576;2024-02-15T01:24:54;4.05;;;2.30;;
67904;SDS011;54709;43.614;1.576;2024-02-15T01:27:19;4.65;;;2.80;;
67904;SDS011;54709;43.614;1.576;2024-02-15T01:29:44;5.63;;;2.80;;
67904;SDS011;54709;43.614;1.576;2024-02-15T01:32:10;6.32;;;3.00;;
67904;SDS011;54709;43.614;1.576;2024-02-15T01:34:35;4.50;;;2.42;;
67904;SDS011;54709;43.614;1.576;2024-02-15T01:37:01;7.93;;;3.20;;
67904;SDS011;54709;43.614;1.576;2024-02-15T01:39:26;6.90;;;3.65;;
67904;SDS011;54709;43.614;1.576;2024-02-15T01:41:52;7.55;;;3.55;;
67904;SDS011;54709;43.614;1.576;2024-02-15T01:44:20;6.32;;;3.70;;
67904;SDS011;54709;43.614;1.576;2024-02-15T01:46:46;6.25;;;3.40;;
67904;SDS011;54709;43.614;1.576;2024-02-15T01:49:12;8.02;;;3.63;;
67904;SDS011;54709;43.614;1.576;2024-02-15T01:51:38;3.17;;;2.72;;
67904;SDS011;54709;43.614;1.576;2024-02-15T01:54:05;7.95;;;3.40;;
67904;SDS011;54709;43.614;1.576;2024-02-15T01:56:31;5.65;;;2.90;;
67904;SDS011;54709;43.614;1.576;2024-02-15T01:58:57;6.03;;;3.58;;
67904;SDS011;54709;43.614;1.576;2024-02-15T02:01:23;5.88;;;3.40;;
67904;SDS011;54709;43.614;1.576;2024-02-15T02:03:48;5.65;;;2.92;;
67904;SDS011;54709;43.614;1.576;2024-02-15T02:06:13;4.45;;;2.70;;
67904;SDS011;54709;43.614;1.576;2024-02-15T02:08:39;5.13;;;2.88;;
67904;SDS011;54709;43.614;1.576;2024-02-15T02:11:04;4.38;;;2.63;;
67904;SDS011;54709;43.614;1.576;2024-02-15T02:13:30;6.10;;;3.03;;
67904;SDS011;54709;43.614;1.576;2024-02-15T02:15:55;6.45;;;3.05;;
67904;SDS011;54709;43.614;1.576;2024-02-15T02:18:21;5.97;;;3.08;;
67904;SDS011;54709;43.614;1.576;2024-02-15T02:20:47;4.07;;;2.65;;
67904;SDS011;54709;43.614;1.576;2024-02-15T02:23:16;6.78;;;2.90;;
67904;SDS011;54709;43.614;1.576;2024-02-15T02:25:43;4.85;;;2.70;;
67904;SDS011;54709;43.614;1.576;2024-02-15T02:28:09;7.85;;;3.20;;
67904;SDS011;54709;43.614;1.576;2024-02-15T02:30:35;5.95;;;2.35;;
67904;SDS011;54709;43.614;1.576;2024-02-15T02:33:01;3.70;;;2.50;;
67904;SDS011;54709;43.614;1.576;2024-02-15T02:35:26;5.25;;;2.60;;
67904;SDS011;54709;43.614;1.576;2024-02-15T02:37:53;6.28;;;2.63;;
67904;SDS011;54709;43.614;1.576;2024-02-15T02:40:18;4.75;;;2.50;;
67904;SDS011;54709;43.614;1.576;2024-02-15T02:42:51;5.47;;;2.80;;
67904;SDS011;54709;43.614;1.576;2024-02-15T02:45:18;3.97;;;2.50;;
67904;SDS011;54709;43.614;1.576;2024-02-15T02:47:48;3.90;;;2.63;;
67904;SDS011;54709;43.614;1.576;2024-02-15T02:50:13;3.08;;;2.20;;
67904;SDS011;54709;43.614;1.576;2024-02-15T02:52:39;3.80;;;2.40;;
67904;SDS011;54709;43.614;1.576;2024-02-15T02:55:05;5.78;;;2.15;;
67904;SDS011;54709;43.614;1.576;2024-02-15T02:57:34;6.47;;;2.13;;
67904;SDS011;54709;43.614;1.576;2024-02-15T03:00:03;3.45;;;2.17;;
67904;SDS011;54709;43.614;1.576;2024-02-15T03:02:30;3.70;;;1.73;;
67904;SDS011;54709;43.614;1.576;2024-02-15T03:04:56;5.30;;;2.00;;
67904;SDS011;54709;43.614;1.576;2024-02-15T03:07:21;4.88;;;2.22;;
67904;SDS011;54709;43.614;1.576;2024-02-15T03:09:48;3.42;;;1.95;;
67904;SDS011;54709;43.614;1.576;2024-02-15T03:12:14;4.70;;;2.08;;
67904;SDS011;54709;43.614;1.576;2024-02-15T03:14:39;3.20;;;1.85;;
67904;SDS011;54709;43.614;1.576;2024-02-15T03:17:06;6.50;;;2.40;;
67904;SDS011;54709;43.614;1.576;2024-02-15T03:19:31;6.00;;;2.50;;
67904;SDS011;54709;43.614;1.576;2024-02-15T03:21:56;3.13;;;2.33;;
67904;SDS011;54709;43.614;1.576;2024-02-15T03:24:22;6.60;;;3.05;;
67904;SDS011;54709;43.614;1.576;2024-02-15T03:26:47;5.50;;;2.90;;
67904;SDS011;54709;43.614;1.576;2024-02-15T03:29:12;5.30;;;2.90;;
67904;SDS011;54709;43.614;1.576;2024-02-15T03:31:38;6.22;;;3.58;;
67904;SDS011;54709;43.614;1.576;2024-02-15T03:34:03;4.57;;;3.22;;
67904;SDS011;54709;43.614;1.576;2024-02-15T03:36:29;7.57;;;3.03;;
67904;SDS011;54709;43.614;1.576;2024-02-15T03:38:55;6.47;;;3.05;;
67904;SDS011;54709;43.614;1.576;2024-02-15T03:41:21;5.13;;;2.75;;
67904;SDS011;54709;43.614;1.576;2024-02-15T03:43:46;7.88;;;2.80;;
67904;SDS011;54709;43.614;1.576;2024-02-15T03:46:12;5.75;;;2.50;;
67904;SDS011;54709;43.614;1.576;2024-02-15T03:48:40;7.47;;;2.90;;
67904;SDS011;54709;43.614;1.576;2024-02-15T03:51:08;4.63;;;2.58;;
67904;SDS011;54709;43.614;1.576;2024-02-15T03:53:34;5.28;;;2.63;;
67904;SDS011;54709;43.614;1.576;2024-02-15T03:56:02;5.53;;;2.53;;
67904;SDS011;54709;43.614;1.576;2024-02-15T03:58:28;5.25;;;2.38;;
67904;SDS011;54709;43.614;1.576;2024-02-15T04:00:55;4.63;;;2.20;;
67904;SDS011;54709;43.614;1.576;2024-02-15T04:03:22;5.68;;;2.33;;
67904;SDS011;54709;43.614;1.576;2024-02-15T04:05:47;4.40;;;2.20;;
67904;SDS011;54709;43.614;1.576;2024-02-15T04:08:13;3.95;;;2.28;;
67904;SDS011;54709;43.614;1.576;2024-02-15T04:10:40;5.45;;;2.42;;
67904;SDS011;54709;43.614;1.576;2024-02-15T04:13:06;3.17;;;1.85;;
67904;SDS011;54709;43.614;1.576;2024-02-15T04:15:32;4.57;;;2.03;;
67904;SDS011;54709;43.614;1.576;2024-02-15T04:17:58;5.43;;;1.95;;
67904;SDS011;54709;43.614;1.576;2024-02-15T04:20:24;5.60;;;2.10;;
67904;SDS011;54709;43.614;1.576;2024-02-15T04:22:50;5.00;;;1.65;;
67904;SDS011;54709;43.614;1.576;2024-02-15T04:25:15;3.05;;;1.73;;
67904;SDS011;54709;43.614;1.576;2024-02-15T04:27:42;5.38;;;1.80;;
67904;SDS011;54709;43.614;1.576;2024-02-15T04:30:09;4.60;;;2.17;;
67904;SDS011;54709;43.614;1.576;2024-02-15T04:32:35;4.80;;;2.00;;
67904;SDS011;54709;43.614;1.576;2024-02-15T04:35:01;6.82;;;2.78;;
67904;SDS011;54709;43.614;1.576;2024-02-15T04:37:27;4.80;;;2.80;;
67904;SDS011;54709;43.614;1.576;2024-02-15T04:39:54;5.60;;;2.60;;
67904;SDS011;54709;43.614;1.576;2024-02-15T04:42:19;5.57;;;2.90;;
67904;SDS011;54709;43.614;1.576;2024-02-15T04:44:45;4.80;;;2.83;;
67904;SDS011;54709;43.614;1.576;2024-02-15T04:47:10;5.03;;;2.60;;
67904;SDS011;54709;43.614;1.576;2024-02-15T04:49:36;4.40;;;2.70;;
67904;SDS011;54709;43.614;1.576;2024-02-15T04:52:03;5.18;;;2.88;;
67904;SDS011;54709;43.614;1.576;2024-02-15T04:54:29;6.80;;;2.83;;
67904;SDS011;54709;43.614;1.576;2024-02-15T04:56:55;6.28;;;3.72;;
67904;SDS011;54709;43.614;1.576;2024-02-15T04:59:22;4.18;;;2.92;;
67904;SDS011;54709;43.614;1.576;2024-02-15T05:01:50;4.38;;;3.30;;
67904;SDS011;54709;43.614;1.576;2024-02-15T05:04:16;5.38;;;3.40;;
67904;SDS011;54709;43.614;1.576;2024-02-15T05:06:43;6.35;;;3.50;;
67904;SDS011;54709;43.614;1.576;2024-02-15T05:09:09;5.65;;;3.72;;
67904;SDS011;54709;43.614;1.576;2024-02-15T05:11:38;8.85;;;4.35;;
67904;SDS011;54709;43.614;1.576;2024-02-15T05:14:06;5.97;;;4.00;;
67904;SDS011;54709;43.614;1.576;2024-02-15T05:16:32;10.90;;;4.25;;
67904;SDS011;54709;43.614;1.576;2024-02-15T05:18:59;7.68;;;4.20;;
67904;SDS011;54709;43.614;1.576;2024-02-15T05:21:24;6.93;;;4.20;;
67904;SDS011;54709;43.614;1.576;2024-02-15T05:23:49;6.30;;;4.28;;
67904;SDS011;54709;43.614;1.576;2024-02-15T05:26:17;7.22;;;4.22;;
67904;SDS011;54709;43.614;1.576;2024-02-15T05:28:47;6.97;;;4.23;;
67904;SDS011;54709;43.614;1.576;2024-02-15T05:31:13;6.38;;;4.00;;
67904;SDS011;54709;43.614;1.576;2024-02-15T05:33:45;5.57;;;4.07;;
67904;SDS011;54709;43.614;1.576;2024-02-15T05:36:16;8.70;;;4.63;;
67904;SDS011;54709;43.614;1.576;2024-02-15T05:38:49;6.70;;;4.30;;
67904;SDS011;54709;43.614;1.576;2024-02-15T05:41:16;7.57;;;4.35;;
67904;SDS011;54709;43.614;1.576;2024-02-15T05:43:41;6.35;;;4.10;;
67904;SDS011;54709;43.614;1.576;2024-02-15T05:46:07;5.75;;;4.35;;
67904;SDS011;54709;43.614;1.576;2024-02-15T05:48:34;7.35;;;4.07;;
67904;SDS011;54709;43.614;1.576;2024-02-15T05:51:00;7.30;;;4.50;;
67904;SDS011;54709;43.614;1.576;2024-02-15T05:53:29;5.40;;;4.35;;
67904;SDS011;54709;43.614;1.576;2024-02-15T05:55:55;8.45;;;4.53;;
67904;SDS011;54709;43.614;1.576;2024-02-15T05:58:22;7.18;;;4.50;;
67904;SDS011;54709;43.614;1.576;2024-02-15T06:00:48;7.57;;;4.40;;
67904;SDS011;54709;43.614;1.576;2024-02-15T06:03:14;8.98;;;4.70;;
67904;SDS011;54709;43.614;1.576;2024-02-15T06:05:41;7.80;;;4.53;;
67904;SDS011;54709;43.614;1.576;2024-02-15T06:08:07;6.18;;;4.57;;
67904;SDS011;54709;43.614;1.576;2024-02-15T06:10:33;7.63;;;4.05;;
67904;SDS011;54709;43.614;1.576;2024-02-15T06:12:58;6.00;;;4.20;;
67904;SDS011;54709;43.614;1.576;2024-02-15T06:15:24;7.35;;;3.80;;
67904;SDS011;54709;43.614;1.576;2024-02-15T06:17:50;6.78;;;4.35;;
67904;SDS011;54709;43.614;1.576;2024-02-15T06:20:16;7.25;;;4.60;;
67904;SDS011;54709;43.614;1.576;2024-02-15T06:22:45;8.68;;;4.60;;
67904;SDS011;54709;43.614;1.576;2024-02-15T06:25:11;6.50;;;4.50;;
67904;SDS011;54709;43.614;1.576;2024-02-15T06:27:38;7.72;;;4.65;;
67904;SDS011;54709;43.614;1.576;2024-02-15T06:30:09;7.65;;;4.35;;
67904;SDS011;54709;43.614;1.576;2024-02-15T06:32:53;5.50;;;3.80;;
67904;SDS011;54709;43.614;1.576;2024-02-15T06:35:37;7.25;;;4.00;;
67904;SDS011;54709;43.614;1.576;2024-02-15T06:38:22;6.38;;;3.95;;
67904;SDS011;54709;43.614;1.576;2024-02-15T06:41:07;5.15;;;3.42;;
67904;SDS011;54709;43.614;1.576;2024-02-15T06:43:34;5.90;;;3.30;;
67904;SDS011;54709;43.614;1.576;2024-02-15T06:46:00;5.82;;;3.42;;
67904;SDS011;54709;43.614;1.576;2024-02-15T06:48:26;4.68;;;3.15;;
67904;SDS011;54709;43.614;1.576;2024-02-15T06:50:51;4.57;;;3.22;;
67904;SDS011;54709;43.614;1.576;2024-02-15T06:53:17;5.82;;;3.35;;
67904;SDS011;54709;43.614;1.576;2024-02-15T06:55:45;8.10;;;3.20;;
67904;SDS011;54709;43.614;1.576;2024-02-15T06:58:11;6.25;;;3.55;;
67904;SDS011;54709;43.614;1.576;2024-02-15T07:00:38;5.38;;;3.30;;
67904;SDS011;54709;43.614;1.576;2024-02-15T07:03:05;4.82;;;3.15;;
67904;SDS011;54709;43.614;1.576;2024-02-15T07:05:32;6.03;;;3.17;;
67904;SDS011;54709;43.614;1.576;2024-02-15T07:07:58;5.00;;;3.78;;
67904;SDS011;54709;43.614;1.576;2024-02-15T07:10:24;4.68;;;3.40;;
67904;SDS011;54709;43.614;1.576;2024-02-15T07:12:49;5.05;;;3.33;;
67904;SDS011;54709;43.614;1.576;2024-02-15T07:15:15;5.63;;;3.40;;
67904;SDS011;54709;43.614;1.576;2024-02-15T07:17:42;4.10;;;3.10;;
67904;SDS011;54709;43.614;1.576;2024-02-15T07:20:07;5.82;;;3.40;;
67904;SDS011;54709;43.614;1.576;2024-02-15T07:22:35;6.13;;;3.45;;
67904;SDS011;54709;43.614;1.576;2024-02-15T07:25:02;5.65;;;3.35;;
67904;SDS011;54709;43.614;1.576;2024-02-15T07:27:29;3.97;;;3.40;;
67904;SDS011;54709;43.614;1.576;2024-02-15T07:29:54;3.85;;;2.83;;
67904;SDS011;54709;43.614;1.576;2024-02-15T07:32:21;4.35;;;3.13;;
67904;SDS011;54709;43.614;1.576;2024-02-15T07:34:46;5.57;;;3.08;;
67904;SDS011;54709;43.614;1.576;2024-02-15T07:37:12;3.90;;;2.88;;
67904;SDS011;54709;43.614;1.576;2024-02-15T07:39:40;4.72;;;3.35;;
67904;SDS011;54709;43.614;1.576;2024-02-15T07:42:05;4.47;;;2.80;;
67904;SDS011;54709;43.614;1.576;2024-02-15T07:44:33;3.88;;;3.05;;
67904;SDS011;54709;43.614;1.576;2024-02-15T07:47:01;4.25;;;2.92;;
67904;SDS011;54709;43.614;1.576;2024-02-15T07:49:27;3.15;;;2.60;;
67904;SDS011;54709;43.614;1.576;2024-02-15T07:51:52;4.85;;;3.58;;
67904;SDS011;54709;43.614;1.576;2024-02-15T07:54:21;5.65;;;4.45;;
67904;SDS011;54709;43.614;1.576;2024-02-15T07:56:46;3.63;;;2.70;;
67904;SDS011;54709;43.614;1.576;2024-02-15T07:59:13;4.40;;;2.70;;
67904;SDS011;54709;43.614;1.576;2024-02-15T08:01:40;4.50;;;2.60;;
67904;SDS011;54709;43.614;1.576;2024-02-15T08:04:05;3.33;;;2.30;;
67904;SDS011;54709;43.614;1.576;2024-02-15T08:06:33;3.40;;;2.67;;
67904;SDS011;54709;43.614;1.576;2024-02-15T08:08:58;4.30;;;2.58;;
67904;SDS011;54709;43.614;1.576;2024-02-15T08:11:24;4.55;;;2.65;;
67904;SDS011;54709;43.614;1.576;2024-02-15T08:13:51;5.20;;;2.80;;
67904;SDS011;54709;43.614;1.576;2024-02-15T08:16:19;3.72;;;2.95;;
67904;SDS011;54709;43.614;1.576;2024-02-15T08:18:48;7.13;;;3.30;;
67904;SDS011;54709;43.614;1.576;2024-02-15T08:21:13;4.65;;;3.13;;
67904;SDS011;54709;43.614;1.576;2024-02-15T08:23:39;3.35;;;2.85;;
67904;SDS011;54709;43.614;1.576;2024-02-15T08:26:05;4.25;;;2.88;;
67904;SDS011;54709;43.614;1.576;2024-02-15T08:28:30;4.72;;;3.20;;
67904;SDS011;54709;43.614;1.576;2024-02-15T08:30:55;3.97;;;3.28;;
67904;SDS011;54709;43.614;1.576;2024-02-15T08:33:22;5.18;;;3.42;;
67904;SDS011;54709;43.614;1.576;2024-02-15T08:35:48;5.00;;;3.38;;
67904;SDS011;54709;43.614;1.576;2024-02-15T08:38:14;5.13;;;3.13;;
67904;SDS011;54709;43.614;1.576;2024-02-15T08:40:39;5.22;;;2.80;;
67904;SDS011;54709;43.614;1.576;2024-02-15T08:43:04;4.60;;;3.15;;
67904;SDS011;54709;43.614;1.576;2024-02-15T08:45:30;4.00;;;2.97;;
67904;SDS011;54709;43.614;1.576;2024-02-15T08:47:55;5.43;;;3.15;;
67904;SDS011;54709;43.614;1.576;2024-02-15T08:50:20;5.03;;;3.00;;
67904;SDS011;54709;43.614;1.576;2024-02-15T08:52:48;5.95;;;2.83;;
67904;SDS011;54709;43.614;1.576;2024-02-15T08:55:14;5.95;;;3.22;;
67904;SDS011;54709;43.614;1.576;2024-02-15T08:57:40;3.92;;;2.58;;
67904;SDS011;54709;43.614;1.576;2024-02-15T09:00:09;3.35;;;2.58;;
67904;SDS011;54709;43.614;1.576;2024-02-15T09:02:44;4.35;;;2.60;;
67904;SDS011;54709;43.614;1.576;2024-02-15T09:05:14;4.30;;;2.20;;
67904;SDS011;54709;43.614;1.576;2024-02-15T09:07:42;4.25;;;2.75;;
67904;SDS011;54709;43.614;1.576;2024-02-15T09:10:13;5.80;;;2.55;;
67904;SDS011;54709;43.614;1.576;2024-02-15T09:12:42;6.13;;;2.55;;
67904;SDS011;54709;43.614;1.576;2024-02-15T09:15:09;5.15;;;2.45;;
67904;SDS011;54709;43.614;1.576;2024-02-15T09:17:39;3.70;;;2.25;;
67904;SDS011;54709;43.614;1.576;2024-02-15T09:20:25;4.20;;;2.20;;
67904;SDS011;54709;43.614;1.576;2024-02-15T09:22:53;2.78;;;2.00;;
67904;SDS011;54709;43.614;1.576;2024-02-15T09:25:19;3.22;;;1.90;;
67904;SDS011;54709;43.614;1.576;2024-02-15T09:27:45;4.47;;;2.38;;
67904;SDS011;54709;43.614;1.576;2024-02-15T09:30:11;5.28;;;1.90;;
67904;SDS011;54709;43.614;1.576;2024-02-15T09:32:37;3.20;;;1.75;;
67904;SDS011;54709;43.614;1.576;2024-02-15T09:35:03;4.20;;;2.05;;
67904;SDS011;54709;43.614;1.576;2024-02-15T09:37:46;4.55;;;2.40;;
67904;SDS011;54709;43.614;1.576;2024-02-15T09:40:15;5.47;;;2.17;;
67904;SDS011;54709;43.614;1.576;2024-02-15T09:42:42;4.03;;;2.10;;
67904;SDS011;54709;43.614;1.576;2024-02-15T09:45:09;5.90;;;2.40;;
67904;SDS011;54709;43.614;1.576;2024-02-15T09:47:38;3.42;;;2.20;;
67904;SDS011;54709;43.614;1.576;2024-02-15T09:50:06;5.22;;;2.40;;
67904;SDS011;54709;43.614;1.576;2024-02-15T09:52:32;4.80;;;2.40;;
67904;SDS011;54709;43.614;1.576;2024-02-15T09:54:58;4.05;;;2.08;;
67904;SDS011;54709;43.614;1.576;2024-02-15T09:57:27;5.30;;;2.05;;
67904;SDS011;54709;43.614;1.576;2024-02-15T09:59:54;3.78;;;2.20;;
67904;SDS011;54709;43.614;1.576;2024-02-15T10:02:19;4.15;;;2.10;;
67904;SDS011;54709;43.614;1.576;2024-02-15T10:04:45;4.75;;;2.25;;
67904;SDS011;54709;43.614;1.576;2024-02-15T10:07:12;3.45;;;2.13;;
67904;SDS011;54709;43.614;1.576;2024-02-15T10:09:38;2.60;;;2.03;;
67904;SDS011;54709;43.614;1.576;2024-02-15T10:12:07;3.08;;;2.08;;
67904;SDS011;54709;43.614;1.576;2024-02-15T10:14:34;3.15;;;2.08;;
67904;SDS011;54709;43.614;1.576;2024-02-15T10:17:05;4.22;;;2.20;;
67904;SDS011;54709;43.614;1.576;2024-02-15T10:19:34;2.63;;;2.00;;
67904;SDS011;54709;43.614;1.576;2024-02-15T10:22:05;5.65;;;2.30;;
67904;SDS011;54709;43.614;1.576;2024-02-15T10:27:03;6.32;;;2.67;;
67904;SDS011;54709;43.614;1.576;2024-02-15T10:29:31;4.25;;;3.28;;
67904;SDS011;54709;43.614;1.576;2024-02-15T10:31:57;4.35;;;3.20;;
67904;SDS011;54709;43.614;1.576;2024-02-15T10:34:25;4.85;;;3.30;;
67904;SDS011;54709;43.614;1.576;2024-02-15T10:36:55;4.30;;;3.20;;
67904;SDS011;54709;43.614;1.576;2024-02-15T10:39:21;4.63;;;3.10;;
67904;SDS011;54709;43.614;1.576;2024-02-15T10:41:52;5.40;;;3.35;;
67904;SDS011;54709;43.614;1.576;2024-02-15T10:44:23;5.20;;;2.90;;
67904;SDS011;54709;43.614;1.576;2024-02-15T10:46:49;6.10;;;2.90;;
67904;SDS011;54709;43.614;1.576;2024-02-15T10:51:44;4.65;;;2.30;;
67904;SDS011;54709;43.614;1.576;2024-02-15T10:54:13;3.03;;;2.30;;
67904;SDS011;54709;43.614;1.576;2024-02-15T10:56:43;3.47;;;2.25;;
67904;SDS011;54709;43.614;1.576;2024-02-15T11:01:44;4.55;;;2.30;;
67904;SDS011;54709;43.614;1.576;2024-02-15T11:04:14;3.20;;;1.90;;
67904;SDS011;54709;43.614;1.576;2024-02-15T11:06:40;3.67;;;2.03;;
67904;SDS011;54709;43.614;1.576;2024-02-15T11:09:09;3.42;;;1.83;;
67904;SDS011;54709;43.614;1.576;2024-02-15T11:11:36;4.50;;;1.80;;
67904;SDS011;54709;43.614;1.576;2024-02-15T11:16:48;3.28;;;1.88;;
67904;SDS011;54709;43.614;1.576;2024-02-15T11:22:01;3.55;;;1.70;;
67904;SDS011;54709;43.614;1.576;2024-02-15T11:24:32;4.97;;;1.90;;
67904;SDS011;54709;43.614;1.576;2024-02-15T11:26:58;4.35;;;1.85;;
67904;SDS011;54709;43.614;1.576;2024-02-15T11:29:48;2.63;;;1.70;;
67904;SDS011;54709;43.614;1.576;2024-02-15T11:59:05;2.03;;;1.15;;
67904;SDS011;54709;43.614;1.576;2024-02-15T12:01:37;3.05;;;1.30;;
67904;SDS011;54709;43.614;1.576;2024-02-15T12:04:21;2.00;;;1.20;;
67904;SDS011;54709;43.614;1.576;2024-02-15T12:07:05;2.90;;;1.30;;
67904;SDS011;54709;43.614;1.576;2024-02-15T12:09:49;3.53;;;1.38;;
67904;SDS011;54709;43.614;1.576;2024-02-15T12:12:33;3.42;;;1.52;;
67904;SDS011;54709;43.614;1.576;2024-02-15T12:15:17;2.88;;;1.27;;
67904;SDS011;54709;43.614;1.576;2024-02-15T12:18:14;3.50;;;1.40;;
67904;SDS011;54709;43.614;1.576;2024-02-15T12:20:58;2.47;;;1.55;;
67904;SDS011;54709;43.614;1.576;2024-02-15T12:23:24;3.83;;;1.40;;
67904;SDS011;54709;43.614;1.576;2024-02-15T12:25:51;2.03;;;1.33;;
67904;SDS011;54709;43.614;1.576;2024-02-15T12:28:17;2.22;;;1.30;;
67904;SDS011;54709;43.614;1.576;2024-02-15T12:30:43;2.47;;;1.40;;
67904;SDS011;54709;43.614;1.576;2024-02-15T12:33:09;3.45;;;1.20;;
67904;SDS011;54709;43.614;1.576;2024-02-15T12:35:36;5.50;;;1.30;;
67904;SDS011;54709;43.614;1.576;2024-02-15T12:38:03;3.78;;;1.40;;
67904;SDS011;54709;43.614;1.576;2024-02-15T12:40:36;3.72;;;1.40;;
67904;SDS011;54709;43.614;1.576;2024-02-15T12:43:06;3.55;;;1.45;;
67904;SDS011;54709;43.614;1.576;2024-02-15T12:45:37;5.38;;;1.50;;
67904;SDS011;54709;43.614;1.576;2024-02-15T12:48:04;3.88;;;1.55;;
67904;SDS011;54709;43.614;1.576;2024-02-15T12:50:33;4.40;;;1.38;;
67904;SDS011;54709;43.614;1.576;2024-02-15T12:52:59;2.10;;;1.27;;
67904;SDS011;54709;43.614;1.576;2024-02-15T12:55:27;4.63;;;1.60;;
67904;SDS011;54709;43.614;1.576;2024-02-15T12:57:56;2.58;;;1.25;;
67904;SDS011;54709;43.614;1.576;2024-02-15T13:02:53;3.87;;;1.30;;
67904;SDS011;54709;43.614;1.576;2024-02-15T13:05:18;3.00;;;1.10;;
67904;SDS011;54709;43.614;1.576;2024-02-15T13:07:44;3.35;;;1.02;;
67904;SDS011;54709;43.614;1.576;2024-02-15T13:10:11;2.10;;;1.30;;
67904;SDS011;54709;43.614;1.576;2024-02-15T13:12:36;3.58;;;1.30;;
67904;SDS011;54709;43.614;1.576;2024-02-15T13:15:06;2.85;;;1.10;;
67904;SDS011;54709;43.614;1.576;2024-02-15T13:17:36;2.67;;;1.23;;
67904;SDS011;54709;43.614;1.576;2024-02-15T13:20:02;6.38;;;1.55;;
67904;SDS011;54709;43.614;1.576;2024-02-15T13:22:30;2.03;;;1.40;;
67904;SDS011;54709;43.614;1.576;2024-02-15T13:24:56;5.35;;;1.40;;
67904;SDS011;54709;43.614;1.576;2024-02-15T13:27:21;2.63;;;1.23;;
67904;SDS011;54709;43.614;1.576;2024-02-15T13:29:48;3.08;;;1.40;;
67904;SDS011;54709;43.614;1.576;2024-02-15T13:32:14;2.88;;;1.30;;
67904;SDS011;54709;43.614;1.576;2024-02-15T13:34:42;2.83;;;1.20;;
67904;SDS011;54709;43.614;1.576;2024-02-15T13:37:07;3.38;;;1.23;;
67904;SDS011;54709;43.614;1.576;2024-02-15T13:39:32;4.65;;;1.27;;
67904;SDS011;54709;43.614;1.576;2024-02-15T13:41:58;2.75;;;1.20;;
67904;SDS011;54709;43.614;1.576;2024-02-15T13:44:27;2.33;;;1.25;;
67904;SDS011;54709;43.614;1.576;2024-02-15T13:46:52;3.20;;;1.52;;
67904;SDS011;54709;43.614;1.576;2024-02-15T13:49:21;3.03;;;1.30;;
67904;SDS011;54709;43.614;1.576;2024-02-15T13:51:46;3.33;;;1.85;;
67904;SDS011;54709;43.614;1.576;2024-02-15T13:54:12;3.92;;;1.73;;
67904;SDS011;54709;43.614;1.576;2024-02-15T13:56:37;4.28;;;1.98;;
67904;SDS011;54709;43.614;1.576;2024-02-15T13:59:04;3.70;;;1.85;;
67904;SDS011;54709;43.614;1.576;2024-02-15T14:01:29;3.47;;;1.50;;
67904;SDS011;54709;43.614;1.576;2024-02-15T14:03:55;1.35;;;1.15;;
67904;SDS011;54709;43.614;1.576;2024-02-15T14:06:20;2.97;;;1.42;;
67904;SDS011;54709;43.614;1.576;2024-02-15T14:08:46;3.25;;;1.10;;
67904;SDS011;54709;43.614;1.576;2024-02-15T14:11:12;2.60;;;1.30;;
67904;SDS011;54709;43.614;1.576;2024-02-15T14:13:37;3.85;;;1.30;;
67904;SDS011;54709;43.614;1.576;2024-02-15T14:16:02;3.50;;;1.20;;
67904;SDS011;54709;43.614;1.576;2024-02-15T14:18:28;2.72;;;1.60;;
67904;SDS011;54709;43.614;1.576;2024-02-15T14:20:54;2.13;;;1.27;;
67904;SDS011;54709;43.614;1.576;2024-02-15T14:23:19;2.70;;;1.55;;
67904;SDS011;54709;43.614;1.576;2024-02-15T14:25:44;2.47;;;1.52;;
67904;SDS011;54709;43.614;1.576;2024-02-15T14:28:10;2.92;;;1.40;;
67904;SDS011;54709;43.614;1.576;2024-02-15T14:30:35;2.92;;;1.40;;
67904;SDS011;54709;43.614;1.576;2024-02-15T14:33:20;2.63;;;1.50;;
67904;SDS011;54709;43.614;1.576;2024-02-15T14:35:47;2.60;;;1.63;;
67904;SDS011;54709;43.614;1.576;2024-02-15T14:38:13;4.72;;;1.80;;
67904;SDS011;54709;43.614;1.576;2024-02-15T14:40:41;4.43;;;1.80;;
67904;SDS011;54709;43.614;1.576;2024-02-15T14:43:08;2.42;;;1.58;;
67904;SDS011;54709;43.614;1.576;2024-02-15T14:45:34;5.32;;;1.55;;
67904;SDS011;54709;43.614;1.576;2024-02-15T14:48:00;3.88;;;1.92;;
67904;SDS011;54709;43.614;1.576;2024-02-15T14:50:25;2.50;;;1.40;;
67904;SDS011;54709;43.614;1.576;2024-02-15T14:52:51;5.57;;;1.70;;
67904;SDS011;54709;43.614;1.576;2024-02-15T14:55:18;4.50;;;1.92;;
67904;SDS011;54709;43.614;1.576;2024-02-15T14:57:47;4.55;;;1.45;;
67904;SDS011;54709;43.614;1.576;2024-02-15T15:00:13;4.78;;;3.13;;
67904;SDS011;54709;43.614;1.576;2024-02-15T15:02:39;6.53;;;3.40;;
67904;SDS011;54709;43.614;1.576;2024-02-15T15:05:06;4.50;;;2.38;;
67904;SDS011;54709;43.614;1.576;2024-02-15T15:07:51;3.17;;;1.98;;
67904;SDS011;54709;43.614;1.576;2024-02-15T15:10:34;4.28;;;2.20;;
67904;SDS011;54709;43.614;1.576;2024-02-15T15:13:18;4.88;;;2.50;;
67904;SDS011;54709;43.614;1.576;2024-02-15T15:15:44;5.03;;;2.58;;
67904;SDS011;54709;43.614;1.576;2024-02-15T15:18:11;4.68;;;2.60;;
67904;SDS011;54709;43.614;1.576;2024-02-15T15:20:36;6.32;;;2.80;;
67904;SDS011;54709;43.614;1.576;2024-02-15T15:23:02;4.90;;;3.00;;
67904;SDS011;54709;43.614;1.576;2024-02-15T15:25:29;4.32;;;2.67;;
67904;SDS011;54709;43.614;1.576;2024-02-15T15:27:55;5.35;;;2.72;;
67904;SDS011;54709;43.614;1.576;2024-02-15T15:30:23;6.72;;;3.03;;
67904;SDS011;54709;43.614;1.576;2024-02-15T15:32:48;4.68;;;2.80;;